Data for 05/29/2018

Time Sea-Level Adjusted Pressure Absolute Pressure Temperature Relative Humidity Dew Point   
(mb) (inHg) (mb) (inHg) (C) (F) (%) (C) (F)
00:05 1017 30.03 846 24.98 11.7 53 85 9.3 48.8
00:10 1017 30.03 846 24.98 11.8 53.2 85 9.4 48.9
00:15 1017 30.03 846 24.98 11.7 53 86 9.4 48.9
00:20 1017 30.03 846 24.98 11.5 52.7 86 9.2 48.6
00:25 1017 30.03 846 24.98 11.3 52.4 87 9.2 48.5
00:30 1016 30 846 24.98 11.3 52.4 86 9 48.3
00:35 1016 30 846 24.98 11.4 52.5 87 9.2 48.6
00:40 1016 30 845 24.95 11.3 52.3 84 8.8 47.8
00:45 1016 30 845 24.95 11.3 52.3 83 8.6 47.4
00:50 1016 30 845 24.95 11.3 52.3 81 8.1 46.6
00:55 1016 30 845 24.95 11.1 51.9 82 8.2 46.8
01:00 1016 30 845 24.95 10.9 51.6 84 8.3 46.9
01:05 1016 30 845 24.95 10.7 51.2 85 8.2 46.8
01:10 1016 30 845 24.95 10.6 51.1 84 8.1 46.5
01:15 1016 30 845 24.95 10.5 50.8 85 8 46.4
01:20 1016 30 845 24.95 10.5 50.8 84 7.9 46.3
01:25 1016 30 846 24.98 10.4 50.7 84 7.9 46.2
01:30 1016 30 846 24.98 10.4 50.7 84 7.8 46
01:35 1016 30 846 24.98 10.4 50.7 83 7.6 45.7
01:40 1017 30.03 846 24.98 10.4 50.7 83 7.7 45.8
01:45 1016 30 846 24.98 10.3 50.6 82 7.4 45.3
01:50 1016 30 846 24.98 10.5 51 82 7.5 45.5
01:55 1017 30.03 846 24.98 10.4 50.7 82 7.4 45.4
02:00 1017 30.03 846 24.98 10.3 50.5 82 7.3 45.2
02:05 1017 30.03 846 24.98 10.5 50.8 79 7.1 44.7
02:10 1017 30.03 846 24.98 10.7 51.3 77 7 44.5
02:15 1017 30.03 846 24.98 10.9 51.6 77 7 44.7
02:20 1017 30.03 846 24.98 11 51.7 76 6.9 44.5
02:25 1017 30.03 846 24.98 11 51.8 76 6.9 44.4
02:30 1017 30.03 846 24.98 11 51.7 76 6.9 44.5
02:35 1017 30.03 846 24.98 10.9 51.6 77 7.1 44.8
02:40 1017 30.03 846 24.98 10.4 50.8 81 7.3 45.2
02:45 1017 30.03 846 24.98 9.7 49.5 83 6.9 44.5
02:50 1017 30.03 846 24.98 9.7 49.5 81 6.7 44
02:55 1017 30.03 846 24.98 10 50 81 6.8 44.3
03:00 1017 30.03 846 24.98 9.8 49.7 83 7 44.7
03:05 1017 30.03 846 24.98 9.8 49.6 83 7.1 44.7
03:10 1017 30.03 846 24.98 9.9 49.9 82 6.9 44.5
03:15 1017 30.03 846 24.98 10 49.9 82 7 44.6
03:20 1017 30.03 846 24.98 9.9 49.8 82 7 44.7
03:25 1017 30.03 846 24.98 9.8 49.6 83 7 44.6
03:30 1017 30.03 846 24.98 9.8 49.7 82 7 44.6
03:35 1017 30.03 846 24.98 9.9 49.7 82 7 44.5
03:40 1017 30.03 846 24.98 10.1 50.1 81 6.9 44.4
03:45 1017 30.03 846 24.98 10.4 50.6 79 7 44.5
03:50 1017 30.03 846 24.98 10.6 51.1 78 7 44.6
03:55 1017 30.03 846 24.98 10.8 51.4 78 7.1 44.7
04:00 1017 30.03 846 24.98 10.7 51.3 77 6.9 44.4
04:05 1017 30.03 846 24.98 10.7 51.3 78 7 44.6
04:10 1017 30.03 846 24.98 10.7 51.2 78 7 44.5
04:15 1017 30.03 846 24.98 10.6 51 79 7.1 44.8
04:20 1017 30.03 846 24.98 10.1 50.3 82 7.2 44.9
04:25 1017 30.03 846 24.98 9.9 49.9 81 6.9 44.5
04:30 1017 30.03 846 24.98 10.1 50.2 81 6.9 44.5
04:35 1017 30.03 846 24.98 10.3 50.6 78 6.7 44.1
04:40 1017 30.03 846 24.98 10.5 50.9 80 7.2 44.9
04:45 1017 30.03 846 24.98 10.2 50.4 81 7.1 44.8
04:50 1017 30.03 846 24.98 10.1 50.2 81 7.1 44.7
04:55 1017 30.03 846 24.98 10.1 50.1 81 7.1 44.7
05:00 1017 30.03 846 24.98 10 50.1 82 7.1 44.7
05:05 1017 30.03 846 24.98 10 50 82 7.1 44.8
05:10 1017 30.03 846 24.98 9.9 49.9 82 7 44.7
05:15 1017 30.03 846 24.98 10.1 50.1 82 7.1 44.7
05:20 1017 30.03 846 24.98 10 50.1 82 7.1 44.7
05:25 1017 30.03 846 24.98 10.1 50.2 81 7 44.6
05:30 1017 30.03 846 24.98 10.2 50.3 81 7.1 44.7
05:35 1017 30.03 846 24.98 10.1 50.2 82 7.1 44.9
05:40 1017 30.03 846 24.98 10.1 50.3 81 7 44.7
05:45 1017 30.03 846 24.98 10.2 50.3 81 7 44.7
05:50 1017 30.03 846 24.98 10.1 50.2 81 7.1 44.8
05:55 1017 30.03 846 24.98 10 50 82 7 44.7
06:00 1017 30.03 846 24.98 9.9 49.8 82 7 44.6
06:05 1017 30.03 846 24.98 9.8 49.6 83 7 44.6
06:10 1017 30.03 847 25.01 9.8 49.7 82 6.9 44.3
06:15 1017 30.03 847 25.01 10.1 50.2 81 7 44.6
06:20 1017 30.03 847 25.01 10.3 50.6 79 6.9 44.4
06:25 1017 30.03 847 25.01 10.5 51 78 6.9 44.3
06:30 1017 30.03 847 25.01 10.7 51.2 79 7.1 44.8
06:35 1017 30.03 846 24.98 10.6 51.1 79 7 44.7
06:40 1017 30.03 847 25.01 10.6 51.1 79 7.2 44.9
06:45 1017 30.03 847 25.01 10.5 51 79 7.1 44.8
06:50 1017 30.03 847 25.01 10.6 51 79 7.2 44.9
06:55 1017 30.03 847 25.01 10.7 51.2 79 7.2 44.9
07:00 1017 30.03 847 25.01 10.8 51.5 78 7.2 45
07:05 1017 30.03 847 25.01 10.9 51.7 78 7.3 45.2
07:10 1017 30.03 847 25.01 11.2 52.1 78 7.4 45.4
07:15 1017 30.03 847 25.01 11.3 52.3 79 7.7 45.9
07:20 1017 30.03 847 25.01 11.2 52.2 79 7.7 45.9
07:25 1017 30.03 847 25.01 11.5 52.6 77 7.6 45.7
07:30 1017 30.03 847 25.01 11.9 53.3 76 7.7 45.9
07:35 1017 30.03 847 25.01 12.3 54.1 75 8.1 46.6
07:40 1017 30.03 847 25.01 12.7 54.8 74 8.1 46.7
07:45 1018 30.06 847 25.01 13.2 55.8 72 8.4 47.1
07:50 1018 30.06 847 25.01 13.7 56.7 70 8.5 47.3
07:55 1018 30.06 847 25.01 14 57.2 71 8.8 47.8
08:00 1018 30.06 847 25.01 14.7 58.5 67 8.8 47.8
08:05 1018 30.06 847 25.01 15.3 59.6 65 8.9 48.1
08:10 1018 30.06 847 25.01 15.9 60.6 62 8.8 47.8
08:15 1018 30.06 847 25.01 16.5 61.8 59 8.6 47.5
08:20 1018 30.06 847 25.01 16.8 62.2 58 8.6 47.5
08:25 1018 30.06 847 25.01 16.6 61.9 57 8.2 46.8
08:30 1018 30.06 847 25.01 16.3 61.3 59 8.3 46.9
08:35 1018 30.06 847 25.01 16.1 61 58 7.9 46.2
08:40 1018 30.06 847 25.01 15.8 60.5 60 8.2 46.7
08:45 1017 30.03 847 25.01 15.7 60.2 59 7.9 46.2
08:50 1017 30.03 847 25.01 15.6 60.1 58 7.3 45.2
08:55 1017 30.03 847 25.01 15.5 60 57 7 44.7
09:00 1017 30.03 847 25.01 15.6 60.1 58 7.4 45.2
09:05 1017 30.03 847 25.01 15.6 60.1 59 7.6 45.7
09:10 1017 30.03 847 25.01 15.7 60.3 59 7.8 46.1
09:15 1017 30.03 847 25.01 15.9 60.6 59 7.9 46.2
09:20 1017 30.03 847 25.01 15.9 60.6 57 7.5 45.5
09:25 1017 30.03 847 25.01 16.1 61 55 7.1 44.8
09:30 1017 30.03 847 25.01 16.1 60.9 54 6.7 44.1
09:35 1017 30.03 847 25.01 16.3 61.4 53 6.7 44.1
09:40 1017 30.03 847 25.01 17 62.6 51 7 44.6
09:45 1017 30.03 847 25.01 17.9 64.1 48 6.7 44.1
09:50 1017 30.03 846 24.98 18.3 64.9 49 7.4 45.3
09:55 1017 30.03 846 24.98 18.4 65.1 48 7.2 45
10:00 1017 30.03 846 24.98 18.4 65 47 6.8 44.3
10:05 1017 30.03 846 24.98 18.5 65.2 46 6.8 44.2
10:10 1017 30.03 846 24.98 18.4 65 46 6.6 44
10:15 1017 30.03 846 24.98 18.8 65.8 44 6.5 43.7
10:20 1017 30.03 846 24.98 19.6 67.2 43 6.6 43.9
10:25 1017 30.03 846 24.98 19.5 67.1 41 6.2 43.2
10:30 1017 30.03 846 24.98 19.4 66.8 42 6.1 43
10:35 1017 30.03 846 24.98 19.1 66.4 43 6.2 43.2
10:40 1017 30.03 846 24.98 17.8 64 47 6.4 43.6
10:45 1017 30.03 846 24.98 18.6 65.4 45 6.5 43.7
10:50 1017 30.03 846 24.98 18.6 65.5 45 6.5 43.7
10:55 1017 30.03 846 24.98 18.7 65.7 43 6 42.9
11:00 1017 30.03 846 24.98 19.1 66.4 44 6.7 44
11:05 1017 30.03 846 24.98 19.2 66.5 44 6.7 44
11:10 1017 30.03 846 24.98 19.3 66.7 42 6.2 43.2
11:15 1017 30.03 846 24.98 20.2 68.3 42 6.9 44.3
11:20 1017 30.03 846 24.98 20.3 68.6 40 6.4 43.5
11:25 1017 30.03 846 24.98 20.4 68.6 42 7.3 45.1
11:30 1017 30.03 846 24.98 20.7 69.3 40 6.9 44.4
11:35 1017 30.03 846 24.98 20.7 69.3 40 6.7 44.1
11:40 1017 30.03 846 24.98 19.8 67.7 42 6.5 43.8
11:45 1017 30.03 846 24.98 19.8 67.6 42 6.6 43.9
11:50 1017 30.03 846 24.98 19.3 66.7 41 5.8 42.5
11:55 1017 30.03 846 24.98 19.9 67.7 38 5.3 41.5
12:00 1017 30.03 846 24.98 20.1 68.1 38 5.5 41.9
12:05 1017 30.03 846 24.98 20 68 38 5.2 41.4
12:10 1017 30.03 846 24.98 20.5 68.8 37 5.4 41.6
12:15 1017 30.03 846 24.98 19.5 67.2 38 5 41
12:20 1017 30.03 846 24.98 20 67.9 35 4.1 39.4
12:25 1017 30.03 846 24.98 19.9 67.8 36 4.7 40.4
12:30 1017 30.03 846 24.98 20.6 69 35 4.9 40.8
12:35 1016 30 846 24.98 20.9 69.6 34 4.7 40.4
12:40 1016 30 846 24.98 21 69.7 35 5.2 41.3
12:45 1016 30 846 24.98 20 68.1 34 4 39.2
12:50 1016 30 846 24.98 21.1 69.9 32 3.8 38.8
12:55 1016 30 846 24.98 21.7 71 33 4.9 40.8
13:00 1016 30 845 24.95 21.5 70.8 31 3.8 38.8
13:05 1016 30 845 24.95 21.6 70.9 31 4.1 39.3
13:10 1016 30 845 24.95 21.8 71.2 31 4.2 39.6
13:15 1016 30 845 24.95 21.2 70.2 32 4.1 39.3
13:20 1016 30 845 24.95 21.7 71.1 27 2.2 36
13:25 1016 30 845 24.95 22.5 72.5 26 2.3 36.2
13:30 1016 30 845 24.95 22.6 72.6 27 2.8 37
13:35 1016 30 845 24.95 22.2 72 27 2.7 36.9
13:40 1016 30 845 24.95 21.5 70.7 26 1.5 34.7
13:45 1016 30 845 24.95 22.4 72.3 25 1.6 34.8
13:50 1016 30 845 24.95 22.5 72.4 25 1.8 35.2
13:55 1016 30 845 24.95 22.1 71.8 23 0.2 32.4
14:00 1016 30 845 24.95 22 71.7 25 1.1 34
14:05 1016 30 845 24.95 22.6 72.7 24 1.1 34
14:10 1016 30 845 24.95 23.1 73.6 24 1.8 35.2
14:15 1016 30 845 24.95 22.4 72.4 28 3.3 38
14:20 1016 30 845 24.95 22.7 72.8 27 3.2 37.7
14:25 1016 30 845 24.95 23.2 73.7 26 3.1 37.6
14:30 1016 30 845 24.95 22.9 73.2 28 3.6 38.4
14:35 1016 30 845 24.95 22.7 72.9 26 2.4 36.3
14:40 1016 30 845 24.95 22.9 73.1 27 3.1 37.5
14:45 1016 30 845 24.95 21.9 71.4 28 2.9 37.3
14:50 1016 30 845 24.95 21.9 71.3 29 3.4 38.1
14:55 1016 30 845 24.95 22 71.6 28 3 37.4
15:00 1016 30 845 24.95 21.8 71.2 28 2.7 36.9
15:05 1016 30 845 24.95 21.4 70.6 28 2.1 35.8
15:10 1016 30 845 24.95 21.8 71.2 27 1.9 35.4
15:15 1016 30 845 24.95 21.6 70.8 28 2.4 36.3
15:20 1016 30 845 24.95 21 69.8 28 2.1 35.8
15:25 1016 30 845 24.95 20.8 69.5 28 1.8 35.2
15:30 1016 30 845 24.95 20.9 69.6 29 2.3 36.2
15:35 1015 29.97 845 24.95 21.7 71.1 27 2.1 35.8
15:40 1015 29.97 845 24.95 22.5 72.5 25 1.6 34.8
15:45 1015 29.97 845 24.95 21.7 71 25 1 33.9
15:50 1015 29.97 845 24.95 22.3 72.2 24 1 33.8
15:55 1015 29.97 844 24.92 21.5 70.7 25 1 33.7
16:00 1015 29.97 844 24.92 21.4 70.5 24 0.1 32.2
16:05 1015 29.97 844 24.92 22.1 71.7 24 0.8 33.4
16:10 1015 29.97 844 24.92 21.9 71.4 25 1.3 34.3
16:15 1015 29.97 844 24.92 21.2 70.2 27 1.6 34.8
16:20 1015 29.97 844 24.92 21.8 71.2 24 0.8 33.4
16:25 1015 29.97 844 24.92 21.6 71 25 1.1 34
16:30 1015 29.97 844 24.92 22.8 73 23 0.6 33
16:35 1015 29.97 844 24.92 23.1 73.6 23 0.9 33.6
16:40 1015 29.97 844 24.92 22.7 72.9 22 0.4 32.7
16:45 1015 29.97 844 24.92 22.8 73 22 0.5 32.8
16:50 1015 29.97 844 24.92 23.4 74.1 23 1.2 34.2
16:55 1015 29.97 844 24.92 23.3 74 22 0.6 33.1
17:00 1015 29.97 844 24.92 23.2 73.8 21 -0.1 31.8
17:05 1015 29.97 844 24.92 23.5 74.3 21 0.3 32.5
17:10 1015 29.97 844 24.92 22.1 71.7 23 0.1 32.1
17:15 1015 29.97 844 24.92 22.4 72.3 22 0 32
17:20 1015 29.97 844 24.92 22.1 71.8 24 0.5 32.9
17:25 1015 29.97 844 24.92 23 73.4 21 -0.4 31.2
17:30 1015 29.97 844 24.92 23.9 75 20 -0.5 31.1
17:35 1014 29.94 844 24.92 24.3 75.8 19 -0.5 31.1
17:40 1014 29.94 844 24.92 24.2 75.6 19 -0.9 30.3
17:45 1014 29.94 844 24.92 23.7 74.7 19 -0.7 30.7
17:50 1014 29.94 844 24.92 23.2 73.8 19 -1.3 29.7
17:55 1014 29.94 844 24.92 23.2 73.8 18 -2.1 28.2
18:00 1014 29.94 844 24.92 23.6 74.5 19 -1 30.2
18:05 1014 29.94 843 24.89 23.2 73.7 19 -1.2 29.8
18:10 1014 29.94 843 24.89 22.3 72.1 20 -1.5 29.3
18:15 1014 29.94 843 24.89 22.1 71.8 20 -1.4 29.5
18:20 1014 29.94 843 24.89 22.2 71.9 19 -2 28.4
18:25 1014 29.94 843 24.89 22.7 72.9 19 -1.8 28.8
18:30 1014 29.94 843 24.89 23.2 73.7 19 -1.8 28.8
18:35 1014 29.94 843 24.89 23.3 74 20 -0.9 30.4
18:40 1014 29.94 843 24.89 22.6 72.8 21 -0.4 31.2
18:45 1014 29.94 843 24.89 22.4 72.3 22 -0.4 31.3
18:50 1014 29.94 843 24.89 22.6 72.7 21 -0.7 30.7
18:55 1014 29.94 843 24.89 22.7 72.8 22 -0.1 31.9
19:00 1014 29.94 843 24.89 22.3 72.2 22 -0.3 31.4
19:05 1014 29.94 843 24.89 22.6 72.7 21 -0.7 30.8
19:10 1014 29.94 843 24.89 22.6 72.6 21 -0.4 31.2
19:15 1014 29.94 843 24.89 22.1 71.7 22 -0.4 31.3
19:20 1014 29.94 843 24.89 21.9 71.4 23 -0.2 31.6
19:25 1014 29.94 843 24.89 21.9 71.5 23 -0.2 31.7
19:30 1014 29.94 843 24.89 21.9 71.3 23 0.1 32.2
19:35 1014 29.94 843 24.89 21.7 71.1 23 -0.2 31.6
19:40 1013 29.91 843 24.89 21.7 71 23 -0 32
19:45 1013 29.91 843 24.89 21.6 71 23 0 32.1
19:50 1013 29.91 843 24.89 21.5 70.8 24 0 32
19:55 1013 29.91 843 24.89 21.5 70.8 24 0.2 32.4
20:00 1013 29.91 843 24.89 21.6 70.9 23 -0.2 31.7
20:05 1013 29.91 843 24.89 21.6 71 24 0.2 32.3
20:10 1013 29.91 842 24.86 21.4 70.6 24 -0 31.9
20:15 1013 29.91 842 24.86 21.4 70.4 25 0.5 32.9
20:20 1013 29.91 843 24.89 21.1 70.1 26 0.9 33.6
20:25 1013 29.91 843 24.89 20.9 69.7 26 1.1 33.9
20:30 1013 29.91 843 24.89 20.8 69.4 27 1.5 34.7
20:35 1013 29.91 843 24.89 20.6 69.1 28 1.5 34.7
20:40 1013 29.91 843 24.89 20.6 69 28 1.7 35.1
20:45 1013 29.91 843 24.89 20.4 68.7 30 2.3 36.1
20:50 1013 29.91 843 24.89 20 68 33 3.5 38.2
20:55 1013 29.91 843 24.89 19.2 66.6 34 3.3 37.9
21:00 1013 29.91 843 24.89 18.7 65.7 36 3.5 38.3
21:05 1013 29.91 843 24.89 18.5 65.2 36 3.4 38
21:10 1013 29.91 843 24.89 18.2 64.7 38 3.6 38.5
21:15 1013 29.91 843 24.89 17.9 64.2 39 4 39.1
21:20 1013 29.91 843 24.89 17.5 63.4 40 3.9 39.1
21:25 1013 29.91 843 24.89 17.2 62.9 40 3.6 38.4
21:30 1013 29.91 843 24.89 16.7 62.1 43 4.2 39.5
21:35 1013 29.91 843 24.89 16.1 61 45 4.2 39.5
21:40 1013 29.91 843 24.89 15.8 60.5 44 3.7 38.7
21:45 1013 29.91 843 24.89 16.2 61.1 43 3.7 38.6
21:50 1013 29.91 843 24.89 16.3 61.3 43 3.8 38.8
21:55 1013 29.91 843 24.89 16.4 61.5 44 4.4 39.9
22:00 1013 29.91 843 24.89 16.5 61.6 47 5.2 41.3
22:05 1013 29.91 843 24.89 16.4 61.6 49 5.7 42.3
22:10 1013 29.91 843 24.89 16.5 61.7 50 6.1 43.1
22:15 1014 29.94 843 24.89 16.5 61.6 51 6.3 43.4
22:20 1014 29.94 843 24.89 16.4 61.5 52 6.6 43.8
22:25 1014 29.94 843 24.89 16.4 61.5 52 6.7 44
22:30 1014 29.94 843 24.89 16.5 61.6 52 6.7 44
22:35 1014 29.94 843 24.89 16.6 62 52 6.8 44.2
22:40 1014 29.94 843 24.89 16.7 62.1 52 6.9 44.3
22:45 1014 29.94 843 24.89 16.7 62 52 6.8 44.3
22:50 1014 29.94 843 24.89 16.5 61.7 53 6.9 44.5
22:55 1014 29.94 843 24.89 16.4 61.5 52 6.6 44
23:00 1014 29.94 843 24.89 16.5 61.7 52 6.8 44.2
23:05 1014 29.94 843 24.89 16.3 61.3 53 6.7 44
23:10 1014 29.94 843 24.89 16.1 60.9 54 6.8 44.2
23:15 1014 29.94 843 24.89 15.9 60.6 54 6.7 44.1
23:20 1014 29.94 843 24.89 15.9 60.6 54 6.6 43.9
23:25 1014 29.94 843 24.89 15.8 60.5 54 6.5 43.7
23:30 1013 29.91 843 24.89 15.8 60.4 52 6.2 43.1
23:35 1013 29.91 843 24.89 15.8 60.4 53 6.3 43.3
23:40 1013 29.91 843 24.89 15.8 60.4 53 6.2 43.1
23:45 1013 29.91 843 24.89 15.7 60.2 52 6 42.9
23:50 1013 29.91 843 24.89 15.5 60 53 6.1 42.9
23:55 1013 29.91 843 24.89 15.6 60 53 6.2 43.1
24:00 1013 29.91 843 24.89 15.6 60.1 54 6.4 43.5